sensor_id;sensor_type;location;lat;lon;timestamp;P1;durP1;ratioP1;P2;durP2;ratioP2
66212;SDS011;53015;50.046;8.238;2023-12-28T00:01:16;14.05;;;6.03;;
66212;SDS011;53015;50.046;8.238;2023-12-28T00:03:43;13.80;;;7.05;;
66212;SDS011;53015;50.046;8.238;2023-12-28T00:06:09;14.43;;;6.88;;
66212;SDS011;53015;50.046;8.238;2023-12-28T00:08:34;12.35;;;6.90;;
66212;SDS011;53015;50.046;8.238;2023-12-28T00:11:00;17.33;;;7.47;;
66212;SDS011;53015;50.046;8.238;2023-12-28T00:13:26;13.80;;;7.90;;
66212;SDS011;53015;50.046;8.238;2023-12-28T00:15:51;14.73;;;7.13;;
66212;SDS011;53015;50.046;8.238;2023-12-28T00:18:17;16.27;;;7.25;;
66212;SDS011;53015;50.046;8.238;2023-12-28T00:20:44;13.57;;;7.32;;
66212;SDS011;53015;50.046;8.238;2023-12-28T00:23:09;13.32;;;7.20;;
66212;SDS011;53015;50.046;8.238;2023-12-28T00:25:35;15.88;;;7.75;;
66212;SDS011;53015;50.046;8.238;2023-12-28T00:28:00;12.05;;;6.80;;
66212;SDS011;53015;50.046;8.238;2023-12-28T00:30:26;15.48;;;6.90;;
66212;SDS011;53015;50.046;8.238;2023-12-28T00:32:52;11.77;;;6.57;;
66212;SDS011;53015;50.046;8.238;2023-12-28T00:35:18;16.20;;;6.78;;
66212;SDS011;53015;50.046;8.238;2023-12-28T00:37:45;11.63;;;6.65;;
66212;SDS011;53015;50.046;8.238;2023-12-28T00:40:10;15.15;;;6.82;;
66212;SDS011;53015;50.046;8.238;2023-12-28T00:42:36;11.43;;;6.03;;
66212;SDS011;53015;50.046;8.238;2023-12-28T00:45:02;11.55;;;6.00;;
66212;SDS011;53015;50.046;8.238;2023-12-28T00:47:28;11.05;;;5.75;;
66212;SDS011;53015;50.046;8.238;2023-12-28T00:49:54;11.20;;;5.80;;
66212;SDS011;53015;50.046;8.238;2023-12-28T00:52:19;13.82;;;6.13;;
66212;SDS011;53015;50.046;8.238;2023-12-28T00:54:46;10.85;;;6.10;;
66212;SDS011;53015;50.046;8.238;2023-12-28T00:57:12;9.68;;;5.60;;
66212;SDS011;53015;50.046;8.238;2023-12-28T00:59:38;12.15;;;6.38;;
66212;SDS011;53015;50.046;8.238;2023-12-28T01:02:03;14.13;;;6.00;;
66212;SDS011;53015;50.046;8.238;2023-12-28T01:04:29;10.55;;;5.97;;
66212;SDS011;53015;50.046;8.238;2023-12-28T01:06:55;10.57;;;5.75;;
66212;SDS011;53015;50.046;8.238;2023-12-28T01:09:21;14.07;;;6.40;;
66212;SDS011;53015;50.046;8.238;2023-12-28T01:11:56;13.23;;;6.07;;
66212;SDS011;53015;50.046;8.238;2023-12-28T01:14:22;9.23;;;5.72;;
66212;SDS011;53015;50.046;8.238;2023-12-28T01:16:47;13.25;;;5.80;;
66212;SDS011;53015;50.046;8.238;2023-12-28T01:19:13;11.32;;;5.55;;
66212;SDS011;53015;50.046;8.238;2023-12-28T01:21:39;8.77;;;5.68;;
66212;SDS011;53015;50.046;8.238;2023-12-28T01:24:04;11.02;;;5.93;;
66212;SDS011;53015;50.046;8.238;2023-12-28T01:26:30;9.43;;;4.78;;
66212;SDS011;53015;50.046;8.238;2023-12-28T01:28:57;10.93;;;5.38;;
66212;SDS011;53015;50.046;8.238;2023-12-28T01:31:23;10.02;;;5.68;;
66212;SDS011;53015;50.046;8.238;2023-12-28T01:33:49;8.48;;;5.13;;
66212;SDS011;53015;50.046;8.238;2023-12-28T01:36:16;12.68;;;5.72;;
66212;SDS011;53015;50.046;8.238;2023-12-28T01:38:42;10.95;;;5.88;;
66212;SDS011;53015;50.046;8.238;2023-12-28T01:41:07;10.32;;;4.97;;
66212;SDS011;53015;50.046;8.238;2023-12-28T01:43:34;11.85;;;4.80;;
66212;SDS011;53015;50.046;8.238;2023-12-28T01:46:01;9.60;;;4.72;;
66212;SDS011;53015;50.046;8.238;2023-12-28T01:48:27;10.52;;;4.65;;
66212;SDS011;53015;50.046;8.238;2023-12-28T01:50:53;8.68;;;4.57;;
66212;SDS011;53015;50.046;8.238;2023-12-28T01:53:19;9.77;;;5.00;;
66212;SDS011;53015;50.046;8.238;2023-12-28T01:55:45;8.25;;;4.50;;
66212;SDS011;53015;50.046;8.238;2023-12-28T01:58:11;8.73;;;4.32;;
66212;SDS011;53015;50.046;8.238;2023-12-28T02:00:37;12.27;;;5.07;;
66212;SDS011;53015;50.046;8.238;2023-12-28T02:03:04;7.65;;;4.93;;
66212;SDS011;53015;50.046;8.238;2023-12-28T02:05:31;7.68;;;4.28;;
66212;SDS011;53015;50.046;8.238;2023-12-28T02:07:58;10.38;;;5.18;;
66212;SDS011;53015;50.046;8.238;2023-12-28T02:10:23;12.60;;;4.43;;
66212;SDS011;53015;50.046;8.238;2023-12-28T02:12:49;9.27;;;5.05;;
66212;SDS011;53015;50.046;8.238;2023-12-28T02:15:16;9.98;;;4.50;;
66212;SDS011;53015;50.046;8.238;2023-12-28T02:17:43;7.90;;;4.88;;
66212;SDS011;53015;50.046;8.238;2023-12-28T02:20:13;10.95;;;4.57;;
66212;SDS011;53015;50.046;8.238;2023-12-28T02:22:40;7.85;;;4.65;;
66212;SDS011;53015;50.046;8.238;2023-12-28T02:25:13;10.32;;;4.75;;
66212;SDS011;53015;50.046;8.238;2023-12-28T02:27:40;9.93;;;4.60;;
66212;SDS011;53015;50.046;8.238;2023-12-28T02:30:07;8.35;;;4.18;;
66212;SDS011;53015;50.046;8.238;2023-12-28T02:32:37;13.65;;;4.72;;
66212;SDS011;53015;50.046;8.238;2023-12-28T02:35:14;8.05;;;4.47;;
66212;SDS011;53015;50.046;8.238;2023-12-28T02:37:43;7.60;;;4.53;;
66212;SDS011;53015;50.046;8.238;2023-12-28T02:40:14;9.57;;;5.20;;
66212;SDS011;53015;50.046;8.238;2023-12-28T02:42:41;6.45;;;4.25;;
66212;SDS011;53015;50.046;8.238;2023-12-28T02:45:07;11.38;;;4.28;;
66212;SDS011;53015;50.046;8.238;2023-12-28T02:47:32;8.00;;;4.60;;
66212;SDS011;53015;50.046;8.238;2023-12-28T02:49:58;10.65;;;4.50;;
66212;SDS011;53015;50.046;8.238;2023-12-28T02:52:24;9.23;;;4.65;;
66212;SDS011;53015;50.046;8.238;2023-12-28T02:54:50;7.38;;;4.60;;
66212;SDS011;53015;50.046;8.238;2023-12-28T02:57:17;9.15;;;4.43;;
66212;SDS011;53015;50.046;8.238;2023-12-28T02:59:42;12.40;;;4.63;;
66212;SDS011;53015;50.046;8.238;2023-12-28T03:02:08;9.20;;;4.63;;
66212;SDS011;53015;50.046;8.238;2023-12-28T03:04:33;6.32;;;4.03;;
66212;SDS011;53015;50.046;8.238;2023-12-28T03:06:59;8.73;;;4.53;;
66212;SDS011;53015;50.046;8.238;2023-12-28T03:09:24;8.88;;;4.43;;
66212;SDS011;53015;50.046;8.238;2023-12-28T03:11:50;7.30;;;4.35;;
66212;SDS011;53015;50.046;8.238;2023-12-28T03:14:16;6.50;;;4.25;;
66212;SDS011;53015;50.046;8.238;2023-12-28T03:16:42;13.20;;;4.68;;
66212;SDS011;53015;50.046;8.238;2023-12-28T03:19:08;7.65;;;4.05;;
66212;SDS011;53015;50.046;8.238;2023-12-28T03:21:34;8.75;;;4.60;;
66212;SDS011;53015;50.046;8.238;2023-12-28T03:24:04;6.68;;;4.15;;
66212;SDS011;53015;50.046;8.238;2023-12-28T03:26:29;9.18;;;4.75;;
66212;SDS011;53015;50.046;8.238;2023-12-28T03:28:55;8.48;;;4.13;;
66212;SDS011;53015;50.046;8.238;2023-12-28T03:31:22;7.70;;;4.13;;
66212;SDS011;53015;50.046;8.238;2023-12-28T03:33:48;7.68;;;4.28;;
66212;SDS011;53015;50.046;8.238;2023-12-28T03:36:17;9.43;;;4.68;;
66212;SDS011;53015;50.046;8.238;2023-12-28T03:38:43;5.70;;;3.88;;
66212;SDS011;53015;50.046;8.238;2023-12-28T03:41:15;8.50;;;4.47;;
66212;SDS011;53015;50.046;8.238;2023-12-28T03:43:41;12.15;;;5.13;;
66212;SDS011;53015;50.046;8.238;2023-12-28T03:46:07;7.25;;;4.25;;
66212;SDS011;53015;50.046;8.238;2023-12-28T03:48:33;12.25;;;4.03;;
66212;SDS011;53015;50.046;8.238;2023-12-28T03:51:00;10.32;;;4.20;;
66212;SDS011;53015;50.046;8.238;2023-12-28T03:53:26;8.68;;;4.50;;
66212;SDS011;53015;50.046;8.238;2023-12-28T03:55:51;7.10;;;4.15;;
66212;SDS011;53015;50.046;8.238;2023-12-28T03:58:17;6.43;;;3.78;;
66212;SDS011;53015;50.046;8.238;2023-12-28T04:00:42;6.95;;;3.72;;
66212;SDS011;53015;50.046;8.238;2023-12-28T04:03:08;8.30;;;3.80;;
66212;SDS011;53015;50.046;8.238;2023-12-28T04:05:35;7.82;;;3.65;;
66212;SDS011;53015;50.046;8.238;2023-12-28T04:08:01;5.82;;;3.30;;
66212;SDS011;53015;50.046;8.238;2023-12-28T04:10:29;6.13;;;3.40;;
66212;SDS011;53015;50.046;8.238;2023-12-28T04:12:57;6.43;;;3.40;;
66212;SDS011;53015;50.046;8.238;2023-12-28T04:15:22;5.68;;;3.00;;
66212;SDS011;53015;50.046;8.238;2023-12-28T04:17:48;6.13;;;3.25;;
66212;SDS011;53015;50.046;8.238;2023-12-28T04:20:13;10.05;;;3.20;;
66212;SDS011;53015;50.046;8.238;2023-12-28T04:22:40;5.47;;;3.25;;
66212;SDS011;53015;50.046;8.238;2023-12-28T04:25:06;6.30;;;3.15;;
66212;SDS011;53015;50.046;8.238;2023-12-28T04:27:32;6.30;;;3.25;;
66212;SDS011;53015;50.046;8.238;2023-12-28T04:29:57;5.63;;;3.03;;
66212;SDS011;53015;50.046;8.238;2023-12-28T04:32:22;3.92;;;2.70;;
66212;SDS011;53015;50.046;8.238;2023-12-28T04:34:48;5.25;;;3.33;;
66212;SDS011;53015;50.046;8.238;2023-12-28T04:37:14;6.07;;;2.92;;
66212;SDS011;53015;50.046;8.238;2023-12-28T04:39:41;5.40;;;2.80;;
66212;SDS011;53015;50.046;8.238;2023-12-28T04:42:07;4.57;;;2.83;;
66212;SDS011;53015;50.046;8.238;2023-12-28T04:44:36;4.43;;;2.58;;
66212;SDS011;53015;50.046;8.238;2023-12-28T04:47:02;5.47;;;2.63;;
66212;SDS011;53015;50.046;8.238;2023-12-28T04:49:28;6.38;;;3.10;;
66212;SDS011;53015;50.046;8.238;2023-12-28T04:51:56;4.55;;;2.72;;
66212;SDS011;53015;50.046;8.238;2023-12-28T04:54:22;5.57;;;2.80;;
66212;SDS011;53015;50.046;8.238;2023-12-28T04:56:49;9.88;;;2.83;;
66212;SDS011;53015;50.046;8.238;2023-12-28T04:59:14;5.20;;;2.47;;
66212;SDS011;53015;50.046;8.238;2023-12-28T05:01:40;4.63;;;2.80;;
66212;SDS011;53015;50.046;8.238;2023-12-28T05:04:06;2.97;;;2.28;;
66212;SDS011;53015;50.046;8.238;2023-12-28T05:06:32;4.10;;;2.33;;
66212;SDS011;53015;50.046;8.238;2023-12-28T05:08:57;4.18;;;2.47;;
66212;SDS011;53015;50.046;8.238;2023-12-28T05:11:23;3.35;;;2.47;;
66212;SDS011;53015;50.046;8.238;2023-12-28T05:13:50;4.15;;;2.00;;
66212;SDS011;53015;50.046;8.238;2023-12-28T05:16:15;4.65;;;2.28;;
66212;SDS011;53015;50.046;8.238;2023-12-28T05:18:41;4.55;;;2.00;;
66212;SDS011;53015;50.046;8.238;2023-12-28T05:21:07;4.25;;;2.40;;
66212;SDS011;53015;50.046;8.238;2023-12-28T05:23:32;2.38;;;2.05;;
66212;SDS011;53015;50.046;8.238;2023-12-28T05:25:58;4.65;;;2.60;;
66212;SDS011;53015;50.046;8.238;2023-12-28T05:28:23;4.60;;;2.10;;
66212;SDS011;53015;50.046;8.238;2023-12-28T05:30:50;3.47;;;2.15;;
66212;SDS011;53015;50.046;8.238;2023-12-28T05:33:15;3.35;;;2.30;;
66212;SDS011;53015;50.046;8.238;2023-12-28T05:35:41;2.70;;;2.08;;
66212;SDS011;53015;50.046;8.238;2023-12-28T05:38:07;3.28;;;2.20;;
66212;SDS011;53015;50.046;8.238;2023-12-28T05:40:32;4.15;;;2.08;;
66212;SDS011;53015;50.046;8.238;2023-12-28T05:42:58;4.53;;;2.70;;
66212;SDS011;53015;50.046;8.238;2023-12-28T05:45:23;14.35;;;3.75;;
66212;SDS011;53015;50.046;8.238;2023-12-28T05:47:50;4.13;;;2.33;;
66212;SDS011;53015;50.046;8.238;2023-12-28T05:50:16;4.85;;;2.50;;
66212;SDS011;53015;50.046;8.238;2023-12-28T05:52:41;4.20;;;2.65;;
66212;SDS011;53015;50.046;8.238;2023-12-28T05:55:07;4.93;;;2.63;;
66212;SDS011;53015;50.046;8.238;2023-12-28T05:57:33;6.05;;;2.80;;
66212;SDS011;53015;50.046;8.238;2023-12-28T05:59:58;6.97;;;2.90;;
66212;SDS011;53015;50.046;8.238;2023-12-28T06:02:24;3.42;;;2.40;;
66212;SDS011;53015;50.046;8.238;2023-12-28T06:04:51;6.22;;;2.40;;
66212;SDS011;53015;50.046;8.238;2023-12-28T06:07:16;4.90;;;2.40;;
66212;SDS011;53015;50.046;8.238;2023-12-28T06:09:42;4.03;;;2.40;;
66212;SDS011;53015;50.046;8.238;2023-12-28T06:12:07;3.03;;;2.30;;
66212;SDS011;53015;50.046;8.238;2023-12-28T06:14:33;4.45;;;2.25;;
66212;SDS011;53015;50.046;8.238;2023-12-28T06:16:58;4.30;;;2.22;;
66212;SDS011;53015;50.046;8.238;2023-12-28T06:19:24;4.50;;;2.20;;
66212;SDS011;53015;50.046;8.238;2023-12-28T06:21:51;3.85;;;2.22;;
66212;SDS011;53015;50.046;8.238;2023-12-28T06:24:17;6.35;;;3.38;;
66212;SDS011;53015;50.046;8.238;2023-12-28T06:26:43;7.53;;;3.17;;
66212;SDS011;53015;50.046;8.238;2023-12-28T06:29:09;4.35;;;2.75;;
66212;SDS011;53015;50.046;8.238;2023-12-28T06:31:34;9.40;;;2.53;;
66212;SDS011;53015;50.046;8.238;2023-12-28T06:34:00;9.00;;;2.70;;
66212;SDS011;53015;50.046;8.238;2023-12-28T06:36:25;4.32;;;2.13;;
66212;SDS011;53015;50.046;8.238;2023-12-28T06:38:52;9.52;;;2.60;;
66212;SDS011;53015;50.046;8.238;2023-12-28T06:41:17;7.32;;;2.15;;
66212;SDS011;53015;50.046;8.238;2023-12-28T06:43:43;3.92;;;2.10;;
66212;SDS011;53015;50.046;8.238;2023-12-28T06:46:08;4.38;;;2.00;;
66212;SDS011;53015;50.046;8.238;2023-12-28T06:48:34;2.85;;;1.63;;
66212;SDS011;53015;50.046;8.238;2023-12-28T06:50:59;3.20;;;1.80;;
66212;SDS011;53015;50.046;8.238;2023-12-28T06:53:25;1.85;;;1.50;;
66212;SDS011;53015;50.046;8.238;2023-12-28T06:55:52;2.45;;;1.60;;
66212;SDS011;53015;50.046;8.238;2023-12-28T06:58:18;3.25;;;1.58;;
66212;SDS011;53015;50.046;8.238;2023-12-28T07:00:43;3.58;;;2.05;;
66212;SDS011;53015;50.046;8.238;2023-12-28T07:03:09;3.30;;;1.70;;
66212;SDS011;53015;50.046;8.238;2023-12-28T07:05:35;3.42;;;1.70;;
66212;SDS011;53015;50.046;8.238;2023-12-28T07:08:00;2.75;;;1.50;;
66212;SDS011;53015;50.046;8.238;2023-12-28T07:10:26;2.47;;;1.75;;
66212;SDS011;53015;50.046;8.238;2023-12-28T07:12:53;2.08;;;1.45;;
66212;SDS011;53015;50.046;8.238;2023-12-28T07:15:19;4.55;;;1.85;;
66212;SDS011;53015;50.046;8.238;2023-12-28T07:17:45;5.95;;;2.97;;
66212;SDS011;53015;50.046;8.238;2023-12-28T07:20:10;2.47;;;1.77;;
66212;SDS011;53015;50.046;8.238;2023-12-28T07:22:36;3.92;;;2.00;;
66212;SDS011;53015;50.046;8.238;2023-12-28T07:25:02;2.03;;;1.77;;
66212;SDS011;53015;50.046;8.238;2023-12-28T07:27:28;2.90;;;1.83;;
66212;SDS011;53015;50.046;8.238;2023-12-28T07:29:54;2.28;;;2.05;;
66212;SDS011;53015;50.046;8.238;2023-12-28T07:32:20;2.00;;;1.80;;
66212;SDS011;53015;50.046;8.238;2023-12-28T07:34:45;3.33;;;2.03;;
66212;SDS011;53015;50.046;8.238;2023-12-28T07:37:11;2.28;;;1.92;;
66212;SDS011;53015;50.046;8.238;2023-12-28T07:39:36;3.28;;;2.00;;
66212;SDS011;53015;50.046;8.238;2023-12-28T07:42:02;2.67;;;2.00;;
66212;SDS011;53015;50.046;8.238;2023-12-28T07:44:27;3.53;;;2.00;;
66212;SDS011;53015;50.046;8.238;2023-12-28T07:46:54;4.43;;;2.17;;
66212;SDS011;53015;50.046;8.238;2023-12-28T07:49:20;2.33;;;2.00;;
66212;SDS011;53015;50.046;8.238;2023-12-28T07:51:46;2.72;;;2.10;;
66212;SDS011;53015;50.046;8.238;2023-12-28T07:54:12;6.45;;;2.28;;
66212;SDS011;53015;50.046;8.238;2023-12-28T07:56:37;3.28;;;1.90;;
66212;SDS011;53015;50.046;8.238;2023-12-28T07:59:03;2.90;;;1.85;;
66212;SDS011;53015;50.046;8.238;2023-12-28T08:01:29;3.88;;;2.40;;
66212;SDS011;53015;50.046;8.238;2023-12-28T08:03:56;2.58;;;2.15;;
66212;SDS011;53015;50.046;8.238;2023-12-28T08:06:21;2.35;;;1.98;;
66212;SDS011;53015;50.046;8.238;2023-12-28T08:08:47;4.55;;;2.15;;
66212;SDS011;53015;50.046;8.238;2023-12-28T08:11:12;3.70;;;2.33;;
66212;SDS011;53015;50.046;8.238;2023-12-28T08:13:38;3.97;;;2.38;;
66212;SDS011;53015;50.046;8.238;2023-12-28T08:16:03;5.38;;;2.55;;
66212;SDS011;53015;50.046;8.238;2023-12-28T08:18:29;5.55;;;2.67;;
66212;SDS011;53015;50.046;8.238;2023-12-28T08:20:56;3.72;;;2.53;;
66212;SDS011;53015;50.046;8.238;2023-12-28T08:23:22;4.55;;;2.35;;
66212;SDS011;53015;50.046;8.238;2023-12-28T08:25:48;5.60;;;2.70;;
66212;SDS011;53015;50.046;8.238;2023-12-28T08:28:13;3.30;;;2.33;;
66212;SDS011;53015;50.046;8.238;2023-12-28T08:30:39;7.38;;;3.38;;
66212;SDS011;53015;50.046;8.238;2023-12-28T08:33:05;4.45;;;2.90;;
66212;SDS011;53015;50.046;8.238;2023-12-28T08:35:30;5.13;;;2.70;;
66212;SDS011;53015;50.046;8.238;2023-12-28T08:37:57;5.18;;;2.85;;
66212;SDS011;53015;50.046;8.238;2023-12-28T08:40:23;3.85;;;2.60;;
66212;SDS011;53015;50.046;8.238;2023-12-28T08:42:48;4.07;;;2.58;;
66212;SDS011;53015;50.046;8.238;2023-12-28T08:45:14;4.55;;;2.47;;
66212;SDS011;53015;50.046;8.238;2023-12-28T08:47:39;3.20;;;2.40;;
66212;SDS011;53015;50.046;8.238;2023-12-28T08:50:05;3.30;;;2.58;;
66212;SDS011;53015;50.046;8.238;2023-12-28T08:52:31;4.05;;;2.60;;
66212;SDS011;53015;50.046;8.238;2023-12-28T08:54:58;6.40;;;3.03;;
66212;SDS011;53015;50.046;8.238;2023-12-28T08:57:23;3.25;;;2.47;;
66212;SDS011;53015;50.046;8.238;2023-12-28T08:59:49;3.75;;;2.70;;
66212;SDS011;53015;50.046;8.238;2023-12-28T09:02:15;4.45;;;2.70;;
66212;SDS011;53015;50.046;8.238;2023-12-28T09:04:41;3.72;;;2.40;;
66212;SDS011;53015;50.046;8.238;2023-12-28T09:07:06;3.38;;;2.47;;
66212;SDS011;53015;50.046;8.238;2023-12-28T09:09:32;4.75;;;2.90;;
66212;SDS011;53015;50.046;8.238;2023-12-28T09:11:58;3.17;;;2.50;;
66212;SDS011;53015;50.046;8.238;2023-12-28T09:14:24;3.88;;;2.72;;
66212;SDS011;53015;50.046;8.238;2023-12-28T09:16:49;5.30;;;2.60;;
66212;SDS011;53015;50.046;8.238;2023-12-28T09:19:15;6.03;;;3.53;;
66212;SDS011;53015;50.046;8.238;2023-12-28T09:21:40;7.07;;;3.80;;
66212;SDS011;53015;50.046;8.238;2023-12-28T09:24:06;4.40;;;2.83;;
66212;SDS011;53015;50.046;8.238;2023-12-28T09:26:31;3.75;;;2.70;;
66212;SDS011;53015;50.046;8.238;2023-12-28T09:28:58;3.55;;;2.65;;
66212;SDS011;53015;50.046;8.238;2023-12-28T09:31:24;2.97;;;2.60;;
66212;SDS011;53015;50.046;8.238;2023-12-28T09:33:49;3.47;;;2.63;;
66212;SDS011;53015;50.046;8.238;2023-12-28T09:36:15;4.10;;;2.38;;
66212;SDS011;53015;50.046;8.238;2023-12-28T09:38:40;3.85;;;2.47;;
66212;SDS011;53015;50.046;8.238;2023-12-28T09:41:08;4.03;;;2.42;;
66212;SDS011;53015;50.046;8.238;2023-12-28T09:43:37;6.60;;;2.67;;
66212;SDS011;53015;50.046;8.238;2023-12-28T09:46:08;5.20;;;2.45;;
66212;SDS011;53015;50.046;8.238;2023-12-28T09:48:33;3.35;;;2.25;;
66212;SDS011;53015;50.046;8.238;2023-12-28T09:51:01;3.03;;;2.30;;
66212;SDS011;53015;50.046;8.238;2023-12-28T09:53:27;2.63;;;2.30;;
66212;SDS011;53015;50.046;8.238;2023-12-28T09:55:53;4.85;;;3.42;;
66212;SDS011;53015;50.046;8.238;2023-12-28T09:58:19;6.35;;;2.50;;
66212;SDS011;53015;50.046;8.238;2023-12-28T10:00:45;5.13;;;2.30;;
66212;SDS011;53015;50.046;8.238;2023-12-28T10:03:14;4.13;;;2.42;;
66212;SDS011;53015;50.046;8.238;2023-12-28T10:05:40;4.88;;;2.35;;
66212;SDS011;53015;50.046;8.238;2023-12-28T10:08:06;3.28;;;2.25;;
66212;SDS011;53015;50.046;8.238;2023-12-28T10:10:31;5.20;;;2.40;;
66212;SDS011;53015;50.046;8.238;2023-12-28T10:12:57;5.90;;;2.45;;
66212;SDS011;53015;50.046;8.238;2023-12-28T10:15:22;3.38;;;2.10;;
66212;SDS011;53015;50.046;8.238;2023-12-28T10:17:48;3.53;;;2.03;;
66212;SDS011;53015;50.046;8.238;2023-12-28T10:20:15;2.13;;;1.83;;
66212;SDS011;53015;50.046;8.238;2023-12-28T10:22:41;3.30;;;1.83;;
66212;SDS011;53015;50.046;8.238;2023-12-28T10:25:07;5.30;;;1.90;;
66212;SDS011;53015;50.046;8.238;2023-12-28T10:27:36;3.55;;;1.73;;
66212;SDS011;53015;50.046;8.238;2023-12-28T10:30:03;3.97;;;1.98;;
66212;SDS011;53015;50.046;8.238;2023-12-28T10:32:30;4.65;;;1.70;;
66212;SDS011;53015;50.046;8.238;2023-12-28T10:34:55;5.00;;;1.60;;
66212;SDS011;53015;50.046;8.238;2023-12-28T10:37:22;2.53;;;1.30;;
66212;SDS011;53015;50.046;8.238;2023-12-28T10:39:51;3.20;;;1.20;;
66212;SDS011;53015;50.046;8.238;2023-12-28T10:42:20;3.55;;;1.35;;
66212;SDS011;53015;50.046;8.238;2023-12-28T10:45:00;2.25;;;1.20;;
66212;SDS011;53015;50.046;8.238;2023-12-28T10:47:28;1.50;;;1.20;;
66212;SDS011;53015;50.046;8.238;2023-12-28T10:49:57;2.67;;;1.00;;
66212;SDS011;53015;50.046;8.238;2023-12-28T10:52:29;3.33;;;1.52;;
66212;SDS011;53015;50.046;8.238;2023-12-28T10:54:57;3.85;;;1.77;;
66212;SDS011;53015;50.046;8.238;2023-12-28T10:57:35;3.92;;;1.13;;
66212;SDS011;53015;50.046;8.238;2023-12-28T11:00:08;4.20;;;1.23;;
66212;SDS011;53015;50.046;8.238;2023-12-28T11:02:37;1.75;;;1.10;;
66212;SDS011;53015;50.046;8.238;2023-12-28T11:05:04;3.33;;;1.50;;
66212;SDS011;53015;50.046;8.238;2023-12-28T11:07:32;4.10;;;1.27;;
66212;SDS011;53015;50.046;8.238;2023-12-28T11:09:58;3.83;;;1.17;;
66212;SDS011;53015;50.046;8.238;2023-12-28T11:12:25;2.92;;;1.20;;
66212;SDS011;53015;50.046;8.238;2023-12-28T11:14:52;3.65;;;1.63;;
66212;SDS011;53015;50.046;8.238;2023-12-28T11:17:19;1.67;;;1.20;;
66212;SDS011;53015;50.046;8.238;2023-12-28T11:19:47;3.58;;;1.38;;
66212;SDS011;53015;50.046;8.238;2023-12-28T11:22:13;3.08;;;1.02;;
66212;SDS011;53015;50.046;8.238;2023-12-28T11:24:41;3.30;;;1.20;;
66212;SDS011;53015;50.046;8.238;2023-12-28T11:27:07;1.63;;;1.00;;
66212;SDS011;53015;50.046;8.238;2023-12-28T11:29:32;1.92;;;1.00;;
66212;SDS011;53015;50.046;8.238;2023-12-28T11:31:58;2.65;;;1.33;;
66212;SDS011;53015;50.046;8.238;2023-12-28T11:34:24;1.80;;;0.80;;
66212;SDS011;53015;50.046;8.238;2023-12-28T11:36:51;3.10;;;1.20;;
66212;SDS011;53015;50.046;8.238;2023-12-28T11:39:20;1.80;;;1.20;;
66212;SDS011;53015;50.046;8.238;2023-12-28T11:42:00;3.33;;;1.27;;
66212;SDS011;53015;50.046;8.238;2023-12-28T11:44:26;2.95;;;1.00;;
66212;SDS011;53015;50.046;8.238;2023-12-28T11:46:51;2.35;;;1.20;;
66212;SDS011;53015;50.046;8.238;2023-12-28T11:49:17;3.22;;;1.15;;
66212;SDS011;53015;50.046;8.238;2023-12-28T11:51:53;1.65;;;1.00;;
66212;SDS011;53015;50.046;8.238;2023-12-28T11:54:20;2.15;;;1.00;;
66212;SDS011;53015;50.046;8.238;2023-12-28T11:56:45;4.35;;;1.30;;
66212;SDS011;53015;50.046;8.238;2023-12-28T11:59:12;4.13;;;1.08;;
66212;SDS011;53015;50.046;8.238;2023-12-28T12:01:38;4.88;;;1.10;;
66212;SDS011;53015;50.046;8.238;2023-12-28T12:04:05;2.40;;;1.00;;
66212;SDS011;53015;50.046;8.238;2023-12-28T12:06:31;7.72;;;2.92;;
66212;SDS011;53015;50.046;8.238;2023-12-28T12:08:57;3.95;;;1.27;;
66212;SDS011;53015;50.046;8.238;2023-12-28T12:11:22;4.15;;;1.10;;
66212;SDS011;53015;50.046;8.238;2023-12-28T12:13:50;1.45;;;1.08;;
66212;SDS011;53015;50.046;8.238;2023-12-28T12:16:17;4.78;;;1.20;;
66212;SDS011;53015;50.046;8.238;2023-12-28T12:18:43;3.60;;;1.30;;
66212;SDS011;53015;50.046;8.238;2023-12-28T12:21:09;3.22;;;1.17;;
66212;SDS011;53015;50.046;8.238;2023-12-28T12:23:34;2.13;;;1.00;;
66212;SDS011;53015;50.046;8.238;2023-12-28T12:26:00;1.75;;;1.00;;
66212;SDS011;53015;50.046;8.238;2023-12-28T12:28:25;5.57;;;1.08;;
66212;SDS011;53015;50.046;8.238;2023-12-28T12:30:51;2.40;;;1.00;;
66212;SDS011;53015;50.046;8.238;2023-12-28T12:33:20;5.85;;;1.20;;
66212;SDS011;53015;50.046;8.238;2023-12-28T12:35:45;4.07;;;1.30;;
66212;SDS011;53015;50.046;8.238;2023-12-28T12:38:11;2.58;;;1.02;;
66212;SDS011;53015;50.046;8.238;2023-12-28T12:40:37;5.25;;;1.02;;
66212;SDS011;53015;50.046;8.238;2023-12-28T12:43:02;3.17;;;1.15;;
66212;SDS011;53015;50.046;8.238;2023-12-28T12:45:28;2.85;;;1.10;;
66212;SDS011;53015;50.046;8.238;2023-12-28T12:47:54;3.08;;;1.27;;
66212;SDS011;53015;50.046;8.238;2023-12-28T12:50:21;2.00;;;1.08;;
66212;SDS011;53015;50.046;8.238;2023-12-28T12:52:46;3.38;;;1.10;;
66212;SDS011;53015;50.046;8.238;2023-12-28T12:55:12;1.90;;;1.15;;
66212;SDS011;53015;50.046;8.238;2023-12-28T12:57:37;3.15;;;1.15;;
66212;SDS011;53015;50.046;8.238;2023-12-28T13:00:03;2.78;;;1.20;;
66212;SDS011;53015;50.046;8.238;2023-12-28T13:02:30;6.35;;;1.23;;
66212;SDS011;53015;50.046;8.238;2023-12-28T13:04:58;2.90;;;1.30;;
66212;SDS011;53015;50.046;8.238;2023-12-28T13:07:25;4.90;;;1.40;;
66212;SDS011;53015;50.046;8.238;2023-12-28T13:09:51;2.58;;;1.42;;
66212;SDS011;53015;50.046;8.238;2023-12-28T13:12:17;2.85;;;1.35;;
66212;SDS011;53015;50.046;8.238;2023-12-28T13:14:42;2.95;;;1.40;;
66212;SDS011;53015;50.046;8.238;2023-12-28T13:17:08;2.22;;;1.30;;
66212;SDS011;53015;50.046;8.238;2023-12-28T13:19:33;1.10;;;0.95;;
66212;SDS011;53015;50.046;8.238;2023-12-28T13:21:59;2.88;;;1.48;;
66212;SDS011;53015;50.046;8.238;2023-12-28T13:24:25;5.82;;;1.75;;
66212;SDS011;53015;50.046;8.238;2023-12-28T13:26:51;1.75;;;1.33;;
66212;SDS011;53015;50.046;8.238;2023-12-28T13:29:16;3.83;;;1.40;;
66212;SDS011;53015;50.046;8.238;2023-12-28T13:31:42;3.08;;;1.70;;
66212;SDS011;53015;50.046;8.238;2023-12-28T13:34:07;7.13;;;1.58;;
66212;SDS011;53015;50.046;8.238;2023-12-28T13:36:33;4.55;;;1.50;;
66212;SDS011;53015;50.046;8.238;2023-12-28T13:38:58;2.35;;;1.20;;
66212;SDS011;53015;50.046;8.238;2023-12-28T13:41:25;2.20;;;1.33;;
66212;SDS011;53015;50.046;8.238;2023-12-28T13:43:51;3.58;;;1.75;;
66212;SDS011;53015;50.046;8.238;2023-12-28T13:46:17;2.58;;;1.40;;
66212;SDS011;53015;50.046;8.238;2023-12-28T13:48:42;3.20;;;1.30;;
66212;SDS011;53015;50.046;8.238;2023-12-28T13:51:08;3.67;;;1.38;;
66212;SDS011;53015;50.046;8.238;2023-12-28T13:53:34;4.53;;;1.33;;
66212;SDS011;53015;50.046;8.238;2023-12-28T13:55:59;5.57;;;1.30;;
66212;SDS011;53015;50.046;8.238;2023-12-28T13:58:26;2.30;;;1.00;;
66212;SDS011;53015;50.046;8.238;2023-12-28T14:00:51;3.85;;;1.10;;
66212;SDS011;53015;50.046;8.238;2023-12-28T14:03:17;1.42;;;0.90;;
66212;SDS011;53015;50.046;8.238;2023-12-28T14:05:42;3.13;;;0.98;;
66212;SDS011;53015;50.046;8.238;2023-12-28T14:08:08;2.33;;;0.98;;
66212;SDS011;53015;50.046;8.238;2023-12-28T14:10:33;0.85;;;0.80;;
66212;SDS011;53015;50.046;8.238;2023-12-28T14:12:59;1.73;;;0.80;;
66212;SDS011;53015;50.046;8.238;2023-12-28T14:20:30;2.03;;;1.00;;
66212;SDS011;53015;50.046;8.238;2023-12-28T14:22:56;2.13;;;0.80;;
66212;SDS011;53015;50.046;8.238;2023-12-28T14:25:22;2.65;;;0.90;;
66212;SDS011;53015;50.046;8.238;2023-12-28T14:27:48;2.20;;;0.88;;
66212;SDS011;53015;50.046;8.238;2023-12-28T14:30:15;1.55;;;0.90;;
66212;SDS011;53015;50.046;8.238;2023-12-28T14:32:41;1.02;;;0.70;;
66212;SDS011;53015;50.046;8.238;2023-12-28T14:35:08;0.68;;;0.60;;
66212;SDS011;53015;50.046;8.238;2023-12-28T14:37:36;1.08;;;0.52;;
66212;SDS011;53015;50.046;8.238;2023-12-28T14:40:02;0.88;;;0.70;;
66212;SDS011;53015;50.046;8.238;2023-12-28T14:42:29;0.63;;;0.63;;
66212;SDS011;53015;50.046;8.238;2023-12-28T14:44:54;1.20;;;0.80;;